createdAt,value
2022-12-18T00:00:23.182Z,0
2022-12-18T00:01:23.277Z,0
2022-12-18T00:02:23.179Z,0
2022-12-18T00:03:23.262Z,0
2022-12-18T00:04:23.338Z,0
2022-12-18T00:05:23.188Z,0
2022-12-18T00:06:23.199Z,0
2022-12-18T00:07:23.172Z,0
2022-12-18T00:08:23.172Z,0
2022-12-18T00:09:24.747Z,0
2022-12-18T00:10:23.178Z,0
2022-12-18T00:11:23.207Z,0
2022-12-18T00:12:23.176Z,0
2022-12-18T00:13:23.181Z,0
2022-12-18T00:14:23.178Z,0
2022-12-18T00:15:23.176Z,0
2022-12-18T00:16:23.310Z,0
2022-12-18T00:17:23.185Z,0
2022-12-18T00:18:23.172Z,0
2022-12-18T00:19:23.176Z,0
2022-12-18T00:20:23.196Z,0
2022-12-18T00:21:23.197Z,0
2022-12-18T00:22:23.178Z,0
2022-12-18T00:23:23.174Z,0
2022-12-18T00:24:23.260Z,0
2022-12-18T00:25:23.184Z,0
2022-12-18T00:26:23.189Z,0
2022-12-18T00:27:23.177Z,0
2022-12-18T00:28:23.175Z,0
2022-12-18T00:29:23.174Z,0
2022-12-18T00:30:23.174Z,0
2022-12-18T00:31:23.227Z,0
2022-12-18T00:32:23.171Z,0
2022-12-18T00:33:23.168Z,0
2022-12-18T00:34:23.176Z,0
2022-12-18T00:35:23.198Z,0
2022-12-18T00:36:23.184Z,0
2022-12-18T00:37:23.167Z,0
2022-12-18T00:38:23.173Z,0
2022-12-18T00:39:23.178Z,0
2022-12-18T00:40:23.173Z,0
2022-12-18T00:41:23.188Z,0
2022-12-18T00:42:23.167Z,0
2022-12-18T00:43:23.167Z,0
2022-12-18T00:44:23.171Z,0
2022-12-18T00:45:23.235Z,0
2022-12-18T00:46:23.189Z,0
2022-12-18T00:47:23.175Z,0
2022-12-18T00:48:23.172Z,0
2022-12-18T00:49:23.168Z,0
2022-12-18T00:50:23.188Z,0
2022-12-18T00:51:23.185Z,0
2022-12-18T00:52:23.171Z,0
2022-12-18T00:53:23.170Z,0
2022-12-18T00:54:23.167Z,0
2022-12-18T00:55:23.172Z,0
2022-12-18T00:56:23.191Z,0
2022-12-18T00:57:23.178Z,0
2022-12-18T00:58:23.179Z,0
2022-12-18T00:59:23.172Z,0
2022-12-18T01:00:23.173Z,0
2022-12-18T01:01:23.269Z,0
2022-12-18T01:02:23.247Z,0
2022-12-18T01:03:23.180Z,0
2022-12-18T01:04:23.177Z,0
2022-12-18T01:05:23.203Z,0
2022-12-18T01:06:23.188Z,0
2022-12-18T01:07:23.181Z,0
2022-12-18T01:08:23.179Z,0
2022-12-18T01:09:23.176Z,0
2022-12-18T01:10:23.172Z,0
2022-12-18T01:11:23.191Z,0
2022-12-18T01:12:23.174Z,0
2022-12-18T01:13:23.177Z,0
2022-12-18T01:14:23.186Z,0
2022-12-18T01:15:23.184Z,0
2022-12-18T01:16:23.475Z,0
2022-12-18T01:17:23.203Z,0
2022-12-18T01:18:23.177Z,0
2022-12-18T01:19:23.180Z,0
2022-12-18T01:20:23.271Z,0
2022-12-18T01:21:23.202Z,0
2022-12-18T01:22:23.186Z,0
2022-12-18T01:23:23.198Z,0
2022-12-18T01:24:23.173Z,0
2022-12-18T01:25:23.179Z,0
2022-12-18T01:26:23.190Z,0
2022-12-18T01:27:23.171Z,0
2022-12-18T01:28:23.178Z,0
2022-12-18T01:29:23.182Z,0
2022-12-18T01:30:23.173Z,0
2022-12-18T01:31:23.338Z,0
2022-12-18T01:32:23.175Z,0
2022-12-18T01:33:23.177Z,0
2022-12-18T01:34:23.182Z,0
2022-12-18T01:35:23.187Z,0
2022-12-18T01:36:23.195Z,0
2022-12-18T01:37:23.186Z,0
2022-12-18T01:38:23.174Z,0
2022-12-18T01:39:23.169Z,0
2022-12-18T01:40:23.175Z,0
2022-12-18T01:41:23.196Z,0
2022-12-18T01:42:23.173Z,0
2022-12-18T01:43:23.167Z,0
2022-12-18T01:44:23.170Z,0
2022-12-18T01:45:23.173Z,0
2022-12-18T01:46:23.188Z,0
2022-12-18T01:47:23.171Z,0
2022-12-18T01:48:23.174Z,0
2022-12-18T01:49:23.168Z,0
2022-12-18T01:50:23.186Z,0
2022-12-18T01:51:23.184Z,0
2022-12-18T01:52:23.171Z,0
2022-12-18T01:53:23.172Z,0
2022-12-18T01:54:23.169Z,0
2022-12-18T01:55:23.166Z,0
2022-12-18T01:56:23.192Z,0
2022-12-18T01:57:23.171Z,0
2022-12-18T01:58:23.175Z,0
2022-12-18T01:59:23.173Z,0
2022-12-18T02:00:23.168Z,0
2022-12-18T02:01:23.343Z,0
2022-12-18T02:02:23.296Z,0
2022-12-18T02:03:23.252Z,0
2022-12-18T02:04:23.178Z,0
2022-12-18T02:05:23.184Z,0
2022-12-18T02:06:23.185Z,75.13
2022-12-18T02:07:23.174Z,75.78
2022-12-18T02:08:23.175Z,75.63
2022-12-18T02:09:23.177Z,75.44
2022-12-18T02:10:23.214Z,75.91
2022-12-18T02:11:23.193Z,76.9
2022-12-18T02:12:23.177Z,76.56
2022-12-18T02:13:23.181Z,75.54
2022-12-18T02:14:23.177Z,74.99
2022-12-18T02:15:23.176Z,74.04
2022-12-18T02:16:23.388Z,73.71
2022-12-18T02:17:23.173Z,74.07
2022-12-18T02:18:23.175Z,74.67
2022-12-18T02:19:23.178Z,74.64
2022-12-18T02:20:23.194Z,74.37
2022-12-18T02:21:23.189Z,74.61
2022-12-18T02:22:23.169Z,74.19
2022-12-18T02:23:23.181Z,74.26
2022-12-18T02:24:23.177Z,74.34
2022-12-18T02:25:23.183Z,73.67
2022-12-18T02:26:23.187Z,73.62
2022-12-18T02:27:23.174Z,74.25
2022-12-18T02:28:23.171Z,74.09
2022-12-18T02:29:23.179Z,73.25
2022-12-18T02:30:23.224Z,72.89
2022-12-18T02:31:23.183Z,73.25
2022-12-18T02:32:23.163Z,73.92
2022-12-18T02:33:23.171Z,74.53
2022-12-18T02:34:23.178Z,74.73
2022-12-18T02:35:23.181Z,74.58
2022-12-18T02:36:23.184Z,74.71
2022-12-18T02:37:23.165Z,74.82
2022-12-18T02:38:23.179Z,73.56
2022-12-18T02:39:23.179Z,72.49
2022-12-18T02:40:23.178Z,72.02
2022-12-18T02:41:23.183Z,72.81
2022-12-18T02:42:23.167Z,73.38
2022-12-18T02:43:23.172Z,73.65
2022-12-18T02:44:23.176Z,73.56
2022-12-18T02:45:23.167Z,72.8
2022-12-18T02:46:23.182Z,73.4
2022-12-18T02:47:23.170Z,73.04
2022-12-18T02:48:23.176Z,72.5
2022-12-18T02:49:23.167Z,73.29
2022-12-18T02:50:23.180Z,72.48
2022-12-18T02:51:23.175Z,72.89
2022-12-18T02:52:23.167Z,73.03
2022-12-18T02:53:23.184Z,73.12
2022-12-18T02:54:23.167Z,72.49
2022-12-18T02:55:23.167Z,72.78
2022-12-18T02:56:23.173Z,74.33
2022-12-18T02:57:23.163Z,73.42
2022-12-18T02:58:23.160Z,72.67
2022-12-18T02:59:23.172Z,73.15
2022-12-18T03:00:23.163Z,72.92
2022-12-18T03:01:23.288Z,72.77
2022-12-18T03:02:23.345Z,72.58
2022-12-18T03:03:23.191Z,74.52
2022-12-18T03:04:23.159Z,74.24
2022-12-18T03:05:23.184Z,73.73
2022-12-18T03:06:23.186Z,73.1
2022-12-18T03:07:23.163Z,73.08
2022-12-18T03:08:23.158Z,72.84
2022-12-18T03:09:23.160Z,73.42
2022-12-18T03:10:23.162Z,73.58
2022-12-18T03:11:23.186Z,74.09
2022-12-18T03:12:23.169Z,74.37
2022-12-18T03:13:23.161Z,75.36
2022-12-18T03:14:23.166Z,74.65
2022-12-18T03:15:23.160Z,76.3
2022-12-18T03:16:23.253Z,76.07
2022-12-18T03:17:23.172Z,74.49
2022-12-18T03:18:23.172Z,73.8
2022-12-18T03:19:23.161Z,73.88
2022-12-18T03:20:23.183Z,74.67
2022-12-18T03:21:23.190Z,73.78
2022-12-18T03:22:23.182Z,73.7
2022-12-18T03:23:26.085Z,73.28
2022-12-18T03:24:23.159Z,73.53
2022-12-18T03:25:23.160Z,73.18
2022-12-18T03:26:23.186Z,73.22
2022-12-18T03:27:23.172Z,73.81
2022-12-18T03:28:23.167Z,73.81
2022-12-18T03:29:23.165Z,73.81
2022-12-18T03:30:23.158Z,73.81
2022-12-18T03:31:23.284Z,72.84
2022-12-18T03:32:23.165Z,73.82
2022-12-18T03:33:23.160Z,73.32
2022-12-18T03:34:23.172Z,73.45
2022-12-18T03:35:23.183Z,74.41
2022-12-18T03:36:23.176Z,74.88
2022-12-18T03:37:23.169Z,74.88
2022-12-18T03:38:23.174Z,74.42
2022-12-18T03:39:23.175Z,73.85
2022-12-18T03:40:23.170Z,73.19
2022-12-18T03:41:23.186Z,72.93
2022-12-18T03:42:23.173Z,73.58
2022-12-18T03:43:23.168Z,73.85
2022-12-18T03:44:23.167Z,74.76
2022-12-18T03:45:23.173Z,74.39
2022-12-18T03:46:23.244Z,74.6
2022-12-18T03:47:23.170Z,74.13
2022-12-18T03:48:23.161Z,73.88
2022-12-18T03:49:23.239Z,73.27
2022-12-18T03:50:23.180Z,72.93
2022-12-18T03:51:23.178Z,72.77
2022-12-18T03:52:23.157Z,72.77
2022-12-18T03:53:23.168Z,72.44
2022-12-18T03:54:23.168Z,72.56
2022-12-18T03:55:23.159Z,72.75
2022-12-18T03:56:23.182Z,73.42
2022-12-18T03:57:23.171Z,73.64
2022-12-18T03:58:23.162Z,73.67
2022-12-18T03:59:23.178Z,74.89
2022-12-18T04:00:23.170Z,74.89
2022-12-18T04:01:23.293Z,75.16
2022-12-18T04:02:23.291Z,75.16
2022-12-18T04:03:26.440Z,75.19
2022-12-18T04:04:23.169Z,74.44
2022-12-18T04:05:23.181Z,73.98
2022-12-18T04:06:23.174Z,73.23
2022-12-18T04:07:23.164Z,74.25
2022-12-18T04:08:23.166Z,74.6
2022-12-18T04:09:23.167Z,74.08
2022-12-18T04:10:23.162Z,74.3
2022-12-18T04:11:23.178Z,74
2022-12-18T04:12:23.159Z,73.66
2022-12-18T04:13:23.158Z,73.15
2022-12-18T04:14:23.164Z,73.61
2022-12-18T04:15:23.164Z,74.01
2022-12-18T04:16:23.183Z,73.94
2022-12-18T04:17:23.160Z,74.85
2022-12-18T04:18:23.162Z,74.77
2022-12-18T04:19:23.165Z,74.12
2022-12-18T04:20:23.184Z,73.53
2022-12-18T04:21:23.178Z,73.21
2022-12-18T04:22:23.164Z,72.71
2022-12-18T04:23:23.167Z,73.18
2022-12-18T04:24:23.163Z,73.48
2022-12-18T04:25:23.170Z,74.49
2022-12-18T04:26:23.185Z,73.95
2022-12-18T04:27:23.184Z,74.54
2022-12-18T04:28:23.170Z,74.08
2022-12-18T04:29:23.161Z,74.23
2022-12-18T04:30:23.158Z,74.23
2022-12-18T04:31:23.235Z,74.32
2022-12-18T04:32:23.178Z,75.97
2022-12-18T04:33:23.166Z,76.36
2022-12-18T04:34:23.171Z,75.91
2022-12-18T04:35:23.182Z,75.45
2022-12-18T04:36:23.217Z,75.1
2022-12-18T04:37:23.167Z,75.03
2022-12-18T04:38:23.168Z,74.4
2022-12-18T04:39:23.269Z,73.88
2022-12-18T04:40:23.171Z,74.21
2022-12-18T04:41:23.184Z,73.58
2022-12-18T04:42:23.165Z,73.84
2022-12-18T04:43:23.225Z,73.84
2022-12-18T04:44:23.168Z,73.69
2022-12-18T04:45:23.168Z,73.69
2022-12-18T04:46:23.296Z,73.23
2022-12-18T04:47:23.165Z,73.7
2022-12-18T04:48:23.167Z,73.82
2022-12-18T04:49:23.172Z,72.94
2022-12-18T04:50:23.189Z,72.37
2022-12-18T04:51:26.391Z,72.87
2022-12-18T04:52:24.177Z,72.68
2022-12-18T04:53:23.167Z,72.76
2022-12-18T04:54:23.170Z,72.89
2022-12-18T04:55:23.175Z,73.27
2022-12-18T04:56:23.184Z,73.27
2022-12-18T04:57:23.159Z,73.27
2022-12-18T04:58:23.168Z,73.93
2022-12-18T04:59:23.204Z,74.98
2022-12-18T05:00:23.181Z,74.98
2022-12-18T05:01:23.349Z,73.19
2022-12-18T05:02:23.373Z,73.03
2022-12-18T05:03:23.195Z,73.51
2022-12-18T05:04:23.174Z,74.1
2022-12-18T05:05:23.172Z,74.1
2022-12-18T05:06:23.194Z,73.99
2022-12-18T05:07:23.182Z,72.89
2022-12-18T05:08:23.182Z,73.08
2022-12-18T05:09:23.170Z,74.15
2022-12-18T05:10:23.174Z,74.15
2022-12-18T05:11:23.177Z,74.32
2022-12-18T05:12:23.163Z,75.21
2022-12-18T05:13:23.168Z,74.49
2022-12-18T05:14:23.171Z,73.93
2022-12-18T05:15:23.164Z,73.89
2022-12-18T05:16:23.272Z,75.05
2022-12-18T05:17:23.158Z,74.59
2022-12-18T05:18:23.161Z,74.02
2022-12-18T05:19:23.162Z,73.51
2022-12-18T05:20:23.188Z,73.87
2022-12-18T05:21:23.181Z,74.63
2022-12-18T05:22:23.163Z,73.61
2022-12-18T05:23:23.163Z,73.7
2022-12-18T05:24:23.162Z,74.99
2022-12-18T05:25:23.162Z,75.79
2022-12-18T05:26:23.179Z,74.33
2022-12-18T05:27:23.163Z,75.04
2022-12-18T05:28:23.160Z,75.04
2022-12-18T05:29:23.158Z,73.7
2022-12-18T05:30:23.164Z,73.94
2022-12-18T05:31:23.338Z,74.03
2022-12-18T05:32:23.175Z,73.53
2022-12-18T05:33:23.172Z,73.83
2022-12-18T05:34:23.163Z,73.92
2022-12-18T05:35:23.176Z,74.31
2022-12-18T05:36:23.176Z,74.67
2022-12-18T05:37:23.164Z,74.22
2022-12-18T05:38:23.161Z,74.2
2022-12-18T05:39:23.163Z,74.71
2022-12-18T05:40:23.169Z,75.12
2022-12-18T05:41:23.182Z,74.62
2022-12-18T05:42:23.166Z,73.99
2022-12-18T05:43:23.232Z,74
2022-12-18T05:44:23.164Z,74.09
2022-12-18T05:45:23.169Z,75
2022-12-18T05:46:23.229Z,74.83
2022-12-18T05:47:23.166Z,74.27
2022-12-18T05:48:23.180Z,74.26
2022-12-18T05:49:23.164Z,74.8
2022-12-18T05:50:23.180Z,75.24
2022-12-18T05:51:23.189Z,74.98
2022-12-18T05:52:23.175Z,75.67
2022-12-18T05:53:23.172Z,75.24
2022-12-18T05:54:23.167Z,75.41
2022-12-18T05:55:23.160Z,74.42
2022-12-18T05:56:23.187Z,74.68
2022-12-18T05:57:23.164Z,74.56
2022-12-18T05:58:23.178Z,74.44
2022-12-18T05:59:23.173Z,73.99
2022-12-18T06:00:23.164Z,73.88
2022-12-18T06:01:23.238Z,73.81
2022-12-18T06:02:23.391Z,74.13
2022-12-18T06:03:23.298Z,74.95
2022-12-18T06:04:23.167Z,73.58
2022-12-18T06:05:23.194Z,73.21
2022-12-18T06:06:23.188Z,73.9
2022-12-18T06:07:23.168Z,74.07
2022-12-18T06:08:23.164Z,73.87
2022-12-18T06:09:23.159Z,73.14
2022-12-18T06:10:23.162Z,73.37
2022-12-18T06:11:23.191Z,73.2
2022-12-18T06:12:23.170Z,73.08
2022-12-18T06:13:23.173Z,73.41
2022-12-18T06:14:23.232Z,72.62
2022-12-18T06:15:23.168Z,72.76
2022-12-18T06:16:23.247Z,73.94
2022-12-18T06:17:23.190Z,74.02
2022-12-18T06:18:23.170Z,73.9
2022-12-18T06:19:23.160Z,74.3
2022-12-18T06:20:23.239Z,74.74
2022-12-18T06:21:23.183Z,75.28
2022-12-18T06:22:23.168Z,75.01
2022-12-18T06:23:23.163Z,74.78
2022-12-18T06:24:23.167Z,75.75
2022-12-18T06:25:23.164Z,74.83
2022-12-18T06:26:27.852Z,74.77
2022-12-18T06:27:23.158Z,74.37
2022-12-18T06:28:23.161Z,74.03
2022-12-18T06:29:23.162Z,73.84
2022-12-18T06:30:23.169Z,74.03
2022-12-18T06:31:23.271Z,74.34
2022-12-18T06:32:23.166Z,74.61
2022-12-18T06:33:23.164Z,74.61
2022-12-18T06:34:23.157Z,75.41
2022-12-18T06:35:23.179Z,76.07
2022-12-18T06:36:23.182Z,77.5
2022-12-18T06:37:23.163Z,77.57
2022-12-18T06:38:23.168Z,79.43
2022-12-18T06:39:23.158Z,80.38
2022-12-18T06:40:23.169Z,80.99
2022-12-18T06:41:23.178Z,80.55
2022-12-18T06:42:23.157Z,79.48
2022-12-18T06:43:23.169Z,79.41
2022-12-18T06:44:23.172Z,78.13
2022-12-18T06:45:23.169Z,77.2
2022-12-18T06:46:23.177Z,77.8
2022-12-18T06:47:23.165Z,78.22
2022-12-18T06:48:23.176Z,78.71
2022-12-18T06:49:27.356Z,78.71
2022-12-18T06:50:23.176Z,76.06
2022-12-18T06:51:23.183Z,75.45
2022-12-18T06:52:23.169Z,74.96
2022-12-18T06:53:23.162Z,74.74
2022-12-18T06:54:23.178Z,75.29
2022-12-18T06:55:23.166Z,77.05
2022-12-18T06:56:23.184Z,77.05
2022-12-18T06:57:23.169Z,76.6
2022-12-18T06:58:23.170Z,76.18
2022-12-18T06:59:23.167Z,76.61
2022-12-18T07:00:23.158Z,76.38
2022-12-18T07:01:23.382Z,78.71
2022-12-18T07:02:23.337Z,80.86
2022-12-18T07:03:23.167Z,82.36
2022-12-18T07:04:23.203Z,82.56
2022-12-18T07:05:23.176Z,81.91
2022-12-18T07:06:23.178Z,80.32
2022-12-18T07:07:23.162Z,79.09
2022-12-18T07:08:23.173Z,79.21
2022-12-18T07:09:23.168Z,79.21
2022-12-18T07:10:23.160Z,85.34
2022-12-18T07:11:23.196Z,89.93
2022-12-18T07:12:23.165Z,92.14
2022-12-18T07:13:23.162Z,93.39
2022-12-18T07:14:23.169Z,92.65
2022-12-18T07:15:23.170Z,91.86
2022-12-18T07:16:25.562Z,94.21
2022-12-18T07:17:23.172Z,94.21
2022-12-18T07:18:23.166Z,94.21
2022-12-18T07:19:23.164Z,94.21
2022-12-18T07:20:23.186Z,94.21
2022-12-18T07:21:23.174Z,94.21
2022-12-18T07:22:23.167Z,94.21
2022-12-18T07:23:23.173Z,94.37
2022-12-18T07:24:23.167Z,93.34
2022-12-18T07:25:23.167Z,93.07
2022-12-18T07:26:23.182Z,93.9
2022-12-18T07:27:23.163Z,93.9
2022-12-18T07:28:23.164Z,93.9
2022-12-18T07:29:23.168Z,93.9
2022-12-18T07:30:23.167Z,93.9
2022-12-18T07:31:23.317Z,94.31
2022-12-18T07:32:23.164Z,94.06
2022-12-18T07:33:23.174Z,94.06
2022-12-18T07:34:23.161Z,93.76
2022-12-18T07:35:25.197Z,92.08
2022-12-18T07:36:23.173Z,92.36
2022-12-18T07:37:23.158Z,92.36
2022-12-18T07:38:23.164Z,92.36
2022-12-18T07:39:23.168Z,92.36
2022-12-18T07:40:23.166Z,92.36
2022-12-18T07:41:23.211Z,92.36
2022-12-18T07:42:23.158Z,92.36
2022-12-18T07:43:23.164Z,92.36
2022-12-18T07:44:23.158Z,92.36
2022-12-18T07:45:23.157Z,92.36
2022-12-18T07:46:23.238Z,92.36
2022-12-18T07:47:23.161Z,92.36
2022-12-18T07:48:23.172Z,92.36
2022-12-18T07:49:23.163Z,92.36
2022-12-18T07:50:23.175Z,92.36
2022-12-18T07:51:23.175Z,92.36
2022-12-18T07:52:26.184Z,92.36
2022-12-18T07:53:23.166Z,92.36
2022-12-18T07:54:23.162Z,92.36
2022-12-18T07:55:23.165Z,92.36
2022-12-18T07:56:28.109Z,92.36
2022-12-18T07:57:48.934Z,92.36
2022-12-18T07:58:23.159Z,92.36
2022-12-18T07:59:23.174Z,92.36
2022-12-18T08:00:23.176Z,92.36
2022-12-18T08:01:23.465Z,92.36
2022-12-18T08:02:23.354Z,92.36
2022-12-18T08:03:23.288Z,92.36
2022-12-18T08:04:23.161Z,92.36
2022-12-18T08:05:23.191Z,92.36
2022-12-18T08:06:24.568Z,92.36
2022-12-18T08:07:23.179Z,92.36
2022-12-18T08:08:23.172Z,92.36
2022-12-18T08:09:23.191Z,92.36
2022-12-18T08:10:23.163Z,92.36
2022-12-18T08:11:23.178Z,92.36
2022-12-18T08:12:23.171Z,92.36
2022-12-18T08:13:23.166Z,92.36
2022-12-18T08:14:23.170Z,92.36
2022-12-18T08:15:23.166Z,92.36
2022-12-18T08:16:23.312Z,92.36
2022-12-18T08:17:23.175Z,92.36
2022-12-18T08:18:23.170Z,92.36
2022-12-18T08:19:23.167Z,92.36
2022-12-18T08:20:23.178Z,92.36
2022-12-18T08:21:23.185Z,92.36
2022-12-18T08:22:23.169Z,92.36
2022-12-18T08:23:23.170Z,92.36
2022-12-18T08:24:23.173Z,92.36
2022-12-18T08:25:23.168Z,92.36
2022-12-18T08:26:23.181Z,92.36
2022-12-18T08:27:30.434Z,92.36
2022-12-18T08:28:23.172Z,92.36
2022-12-18T08:29:23.172Z,92.36
2022-12-18T08:30:23.161Z,92.36
2022-12-18T08:31:23.504Z,92.36
2022-12-18T08:32:23.196Z,92.36
2022-12-18T08:33:23.159Z,92.36
2022-12-18T08:34:23.163Z,92.36
2022-12-18T08:35:23.185Z,92.36
2022-12-18T08:36:23.182Z,92.36
2022-12-18T08:37:23.177Z,92.36
2022-12-18T08:38:23.165Z,92.36
2022-12-18T08:39:23.180Z,92.36
2022-12-18T08:40:23.172Z,92.36
2022-12-18T08:41:23.185Z,92.36
2022-12-18T08:42:23.170Z,92.36
2022-12-18T08:43:23.181Z,92.36
2022-12-18T08:44:23.169Z,92.36
2022-12-18T08:45:23.161Z,92.36
2022-12-18T08:46:23.360Z,92.36
2022-12-18T08:47:23.207Z,92.36
2022-12-18T08:48:23.182Z,92.36
2022-12-18T08:49:23.161Z,92.36
2022-12-18T08:50:23.277Z,92.36
2022-12-18T08:51:23.177Z,92.36
2022-12-18T08:52:23.160Z,92.36
2022-12-18T08:53:23.189Z,92.36
2022-12-18T08:54:23.168Z,92.36
2022-12-18T08:55:23.167Z,92.36
2022-12-18T08:56:23.178Z,92.36
2022-12-18T08:57:23.157Z,92.36
2022-12-18T08:58:23.161Z,92.36
2022-12-18T08:59:23.163Z,92.36
2022-12-18T09:00:23.158Z,92.36
2022-12-18T09:01:23.300Z,92.36
2022-12-18T09:02:23.374Z,92.36
2022-12-18T09:03:23.238Z,92.36
2022-12-18T09:04:23.160Z,92.36
2022-12-18T09:05:23.176Z,92.36
2022-12-18T09:06:23.174Z,92.36
2022-12-18T09:07:23.164Z,92.36
2022-12-18T09:08:23.162Z,92.36
2022-12-18T09:09:23.169Z,92.36
2022-12-18T09:10:23.191Z,92.36
2022-12-18T09:11:23.176Z,92.36
2022-12-18T09:12:23.160Z,92.36
2022-12-18T09:13:23.167Z,92.36
2022-12-18T09:14:23.169Z,92.36
2022-12-18T09:15:23.170Z,92.36
2022-12-18T09:16:27.362Z,92.36
2022-12-18T09:17:23.230Z,92.36
2022-12-18T09:18:23.181Z,92.36
2022-12-18T09:19:23.172Z,92.36
2022-12-18T09:20:23.267Z,92.36
2022-12-18T09:21:23.201Z,92.36
2022-12-18T09:22:23.168Z,92.36
2022-12-18T09:23:23.167Z,92.36
2022-12-18T09:24:23.169Z,92.36
2022-12-18T09:25:23.169Z,92.36
2022-12-18T09:26:23.179Z,92.36
2022-12-18T09:27:23.167Z,92.36
2022-12-18T09:28:23.173Z,92.36
2022-12-18T09:29:23.173Z,92.36
2022-12-18T09:30:23.256Z,92.36
2022-12-18T09:31:23.259Z,92.36
2022-12-18T09:32:23.171Z,92.36
2022-12-18T09:33:23.169Z,92.36
2022-12-18T09:34:23.409Z,92.36
2022-12-18T09:35:23.185Z,92.36
2022-12-18T09:36:23.184Z,92.36
2022-12-18T09:37:23.178Z,92.36
2022-12-18T09:38:23.182Z,92.36
2022-12-18T09:39:24.224Z,92.36
2022-12-18T09:40:23.165Z,92.36
2022-12-18T09:41:23.183Z,92.36
2022-12-18T09:42:23.171Z,92.36
2022-12-18T09:43:23.163Z,92.36
2022-12-18T09:44:23.190Z,92.36
2022-12-18T09:45:23.171Z,92.36
2022-12-18T09:46:23.296Z,92.36
2022-12-18T09:47:23.168Z,92.36
2022-12-18T09:48:23.170Z,92.36
2022-12-18T09:49:23.168Z,92.36
2022-12-18T09:50:23.183Z,92.36
2022-12-18T09:51:23.184Z,92.36
2022-12-18T09:52:23.177Z,92.36
2022-12-18T09:53:23.168Z,92.36
2022-12-18T09:54:23.156Z,92.36
2022-12-18T09:55:23.159Z,92.36
2022-12-18T09:56:23.180Z,92.36
2022-12-18T09:57:23.172Z,92.36
2022-12-18T09:58:23.163Z,92.36
2022-12-18T09:59:23.158Z,92.36
2022-12-18T10:00:23.168Z,92.36
2022-12-18T10:01:23.228Z,92.36
2022-12-18T10:02:23.363Z,92.36
2022-12-18T10:03:23.168Z,92.36
2022-12-18T10:04:23.283Z,92.36
2022-12-18T10:05:23.177Z,92.36
2022-12-18T10:06:23.190Z,92.36
2022-12-18T10:07:23.166Z,92.36
2022-12-18T10:08:23.158Z,92.36
2022-12-18T10:09:23.156Z,92.36
2022-12-18T10:10:23.163Z,92.36
2022-12-18T10:11:23.176Z,92.36
2022-12-18T10:12:23.165Z,92.36
2022-12-18T10:13:23.858Z,92.36
2022-12-18T10:14:23.172Z,92.36
2022-12-18T10:15:23.163Z,92.36
2022-12-18T10:16:23.240Z,92.36
2022-12-18T10:17:23.173Z,92.36
2022-12-18T10:18:23.164Z,92.36
2022-12-18T10:19:23.218Z,92.36
2022-12-18T10:20:23.195Z,92.36
2022-12-18T10:21:23.180Z,92.36
2022-12-18T10:22:23.164Z,92.36
2022-12-18T10:23:23.242Z,92.36
2022-12-18T10:24:23.159Z,92.36
2022-12-18T10:25:23.167Z,92.36
2022-12-18T10:26:23.230Z,92.36
2022-12-18T10:27:23.159Z,92.36
2022-12-18T10:28:23.162Z,92.36
2022-12-18T10:29:23.168Z,92.36
2022-12-18T10:30:23.162Z,92.36
2022-12-18T10:31:24.674Z,92.36
2022-12-18T10:32:23.170Z,92.36
2022-12-18T10:33:23.168Z,92.36
2022-12-18T10:34:23.168Z,92.36
2022-12-18T10:35:23.183Z,92.36
2022-12-18T10:36:23.183Z,92.36
2022-12-18T10:37:23.162Z,92.36
2022-12-18T10:38:23.169Z,92.36
2022-12-18T10:39:23.166Z,92.36
2022-12-18T10:40:23.163Z,92.36
2022-12-18T10:41:23.181Z,92.36
2022-12-18T10:42:23.163Z,92.36
2022-12-18T10:43:23.170Z,92.36
2022-12-18T10:44:23.169Z,92.36
2022-12-18T10:45:23.166Z,92.36
2022-12-18T10:46:23.257Z,92.36
2022-12-18T10:47:23.176Z,92.36
2022-12-18T10:48:23.271Z,92.36
2022-12-18T10:49:23.158Z,92.36
2022-12-18T10:50:26.179Z,92.36
2022-12-18T10:51:23.189Z,92.36
2022-12-18T10:52:23.177Z,92.36
2022-12-18T10:53:23.163Z,92.36
2022-12-18T10:54:23.168Z,92.36
2022-12-18T10:55:23.301Z,92.36
2022-12-18T10:56:23.181Z,92.36
2022-12-18T10:57:23.163Z,92.36
2022-12-18T10:58:26.610Z,92.36
2022-12-18T10:59:23.169Z,92.36
2022-12-18T11:00:23.173Z,92.36
2022-12-18T11:01:23.293Z,92.36
2022-12-18T11:02:23.308Z,92.36
2022-12-18T11:03:23.207Z,92.36
2022-12-18T11:04:23.164Z,92.36
2022-12-18T11:05:23.184Z,92.36
2022-12-18T11:06:23.177Z,92.36
2022-12-18T11:07:23.164Z,92.36
2022-12-18T11:08:23.163Z,92.36
2022-12-18T11:09:23.173Z,92.36
2022-12-18T11:10:23.161Z,92.36
2022-12-18T11:11:23.181Z,92.36
2022-12-18T11:12:23.166Z,92.36
2022-12-18T11:13:23.168Z,92.36
2022-12-18T11:14:23.164Z,92.36
2022-12-18T11:15:23.166Z,92.36
2022-12-18T11:16:23.232Z,92.36
2022-12-18T11:17:26.090Z,92.36
2022-12-18T11:18:23.164Z,92.36
2022-12-18T11:19:23.508Z,92.36
2022-12-18T11:20:23.175Z,92.36
2022-12-18T11:21:23.182Z,92.36
2022-12-18T11:22:23.158Z,92.36
2022-12-18T11:23:23.158Z,92.36
2022-12-18T11:24:23.176Z,92.36
2022-12-18T11:25:33.008Z,92.36
2022-12-18T11:26:23.172Z,92.36
2022-12-18T11:27:23.231Z,92.36
2022-12-18T11:28:23.173Z,92.36
2022-12-18T11:29:23.197Z,92.36
2022-12-18T11:30:23.155Z,92.36
2022-12-18T11:31:23.294Z,92.36
2022-12-18T11:32:23.161Z,92.36
2022-12-18T11:33:23.161Z,92.36
2022-12-18T11:34:30.058Z,92.36
2022-12-18T11:35:23.207Z,92.36
2022-12-18T11:36:23.184Z,92.36
2022-12-18T11:37:23.214Z,92.36
2022-12-18T11:38:23.229Z,92.36
2022-12-18T11:39:23.173Z,92.36
2022-12-18T11:40:23.172Z,92.36
2022-12-18T11:41:23.175Z,92.36
2022-12-18T11:42:23.158Z,92.36
2022-12-18T11:43:23.167Z,92.36
2022-12-18T11:44:23.170Z,92.36
2022-12-18T11:45:23.161Z,92.36
2022-12-18T11:46:23.268Z,92.36
2022-12-18T11:47:23.168Z,92.36
2022-12-18T11:48:23.167Z,92.36
2022-12-18T11:49:23.181Z,92.36
2022-12-18T11:50:23.181Z,92.36
2022-12-18T11:52:12.998Z,92.36
2022-12-18T11:53:11.689Z,92.36
2022-12-18T11:54:11.685Z,92.36
2022-12-18T11:55:11.695Z,92.36
2022-12-18T11:56:11.671Z,92.36
2022-12-18T11:57:11.685Z,92.36
2022-12-18T11:58:11.680Z,92.36
2022-12-18T11:59:11.667Z,92.36
2022-12-18T12:00:22.635Z,92.36
2022-12-18T12:01:19.972Z,92.36
2022-12-18T12:02:20.061Z,92.36
2022-12-18T12:03:19.909Z,92.36
2022-12-18T12:04:19.932Z,92.36
2022-12-18T12:05:19.873Z,92.36
2022-12-18T12:06:19.884Z,92.36
2022-12-18T12:07:19.880Z,92.36
2022-12-18T12:08:19.874Z,92.36
2022-12-18T12:09:19.871Z,92.36
2022-12-18T12:10:19.907Z,92.36
2022-12-18T12:11:19.869Z,92.36
2022-12-18T12:12:19.882Z,92.36
2022-12-18T12:13:19.861Z,92.36
2022-12-18T12:14:19.868Z,92.36
2022-12-18T12:15:19.866Z,92.36
2022-12-18T12:16:19.964Z,92.36
2022-12-18T12:17:19.913Z,92.36
2022-12-18T12:18:19.858Z,92.36
2022-12-18T12:19:19.864Z,92.36
2022-12-18T12:20:19.892Z,92.36
2022-12-18T12:21:19.868Z,92.36
2022-12-18T12:22:19.862Z,92.36
2022-12-18T12:23:22.479Z,92.36
2022-12-18T12:24:19.847Z,92.36
2022-12-18T12:25:45.091Z,92.36
2022-12-18T12:26:43.999Z,92.36
2022-12-18T12:27:44.019Z,92.36
2022-12-18T12:29:02.405Z,92.36
2022-12-18T12:30:01.301Z,92.36
2022-12-18T12:32:09.316Z,92.36
2022-12-18T12:33:08.194Z,92.36
2022-12-18T12:34:08.203Z,92.36
2022-12-18T12:35:10.030Z,92.36
2022-12-18T12:36:08.183Z,92.36
2022-12-18T12:37:08.194Z,92.36
2022-12-18T12:38:15.640Z,92.36
2022-12-18T12:39:14.177Z,92.36
2022-12-18T12:40:48.307Z,92.36
2022-12-18T12:41:14.186Z,92.36
2022-12-18T12:43:13.920Z,92.36
2022-12-18T12:44:12.863Z,92.36
2022-12-18T12:45:12.827Z,92.36
2022-12-18T12:46:12.880Z,92.36
2022-12-18T12:47:12.828Z,92.36
2022-12-18T12:48:12.853Z,92.36
2022-12-18T12:50:10.850Z,92.36
2022-12-18T12:51:49.381Z,92.36
2022-12-18T12:52:48.351Z,92.36
2022-12-18T12:53:48.330Z,92.36
2022-12-18T12:54:48.302Z,92.36
2022-12-18T12:55:48.370Z,92.36
2022-12-18T12:56:48.311Z,92.36
2022-12-18T12:57:48.316Z,92.36
2022-12-18T12:59:16.491Z,92.36
2022-12-18T13:00:15.463Z,92.36
2022-12-18T13:01:21.433Z,92.36
2022-12-18T13:02:15.441Z,92.36
2022-12-18T13:03:15.389Z,92.36
2022-12-18T13:04:15.411Z,92.36
2022-12-18T13:05:15.404Z,92.36
2022-12-18T13:06:15.365Z,92.36
2022-12-18T13:07:15.382Z,92.36
2022-12-18T13:08:15.405Z,92.36
2022-12-18T13:09:15.557Z,92.36
2022-12-18T13:10:17.265Z,92.36
2022-12-18T13:11:15.385Z,92.36
2022-12-18T13:12:15.364Z,92.36
2022-12-18T13:13:17.364Z,92.36
2022-12-18T13:14:21.680Z,92.36
2022-12-18T13:15:20.523Z,92.36
2022-12-18T13:16:20.517Z,92.36